sensor_id;sensor_type;location;lat;lon;timestamp;P1;durP1;ratioP1;P2;durP2;ratioP2
7571;SDS011;3827;49.928;8.548;2022-09-02T00:00:20;2.10;;;1.50;;
7571;SDS011;3827;49.928;8.548;2022-09-02T00:02:47;1.70;;;1.50;;
7571;SDS011;3827;49.928;8.548;2022-09-02T00:05:15;1.90;;;1.58;;
7571;SDS011;3827;49.928;8.548;2022-09-02T00:07:44;1.73;;;1.50;;
7571;SDS011;3827;49.928;8.548;2022-09-02T00:10:11;2.22;;;2.03;;
7571;SDS011;3827;49.928;8.548;2022-09-02T00:12:37;1.92;;;1.40;;
7571;SDS011;3827;49.928;8.548;2022-09-02T00:15:06;1.50;;;1.40;;
7571;SDS011;3827;49.928;8.548;2022-09-02T00:17:34;2.40;;;1.50;;
7571;SDS011;3827;49.928;8.548;2022-09-02T00:20:00;1.60;;;1.50;;
7571;SDS011;3827;49.928;8.548;2022-09-02T00:22:28;1.95;;;1.58;;
7571;SDS011;3827;49.928;8.548;2022-09-02T00:24:55;2.10;;;1.60;;
7571;SDS011;3827;49.928;8.548;2022-09-02T00:27:21;2.88;;;1.45;;
7571;SDS011;3827;49.928;8.548;2022-09-02T00:29:49;1.55;;;1.30;;
7571;SDS011;3827;49.928;8.548;2022-09-02T00:32:18;2.45;;;1.40;;
7571;SDS011;3827;49.928;8.548;2022-09-02T00:34:45;1.85;;;1.65;;
7571;SDS011;3827;49.928;8.548;2022-09-02T00:37:12;1.90;;;1.50;;
7571;SDS011;3827;49.928;8.548;2022-09-02T00:39:41;1.45;;;1.35;;
7571;SDS011;3827;49.928;8.548;2022-09-02T00:42:08;1.45;;;1.35;;
7571;SDS011;3827;49.928;8.548;2022-09-02T00:44:36;1.48;;;1.38;;
7571;SDS011;3827;49.928;8.548;2022-09-02T00:47:02;2.03;;;1.80;;
7571;SDS011;3827;49.928;8.548;2022-09-02T00:49:31;2.67;;;1.67;;
7571;SDS011;3827;49.928;8.548;2022-09-02T00:52:02;1.63;;;1.50;;
7571;SDS011;3827;49.928;8.548;2022-09-02T00:54:31;1.83;;;1.52;;
7571;SDS011;3827;49.928;8.548;2022-09-02T00:57:02;3.80;;;1.50;;
7571;SDS011;3827;49.928;8.548;2022-09-02T00:59:37;1.50;;;1.40;;
7571;SDS011;3827;49.928;8.548;2022-09-02T01:02:09;1.70;;;1.38;;
7571;SDS011;3827;49.928;8.548;2022-09-02T01:04:38;1.70;;;1.60;;
7571;SDS011;3827;49.928;8.548;2022-09-02T01:07:06;1.80;;;1.60;;
7571;SDS011;3827;49.928;8.548;2022-09-02T01:09:33;3.22;;;1.73;;
7571;SDS011;3827;49.928;8.548;2022-09-02T01:12:02;2.35;;;1.60;;
7571;SDS011;3827;49.928;8.548;2022-09-02T01:14:29;1.55;;;1.45;;
7571;SDS011;3827;49.928;8.548;2022-09-02T01:16:57;3.35;;;1.52;;
7571;SDS011;3827;49.928;8.548;2022-09-02T01:19:26;2.00;;;1.48;;
7571;SDS011;3827;49.928;8.548;2022-09-02T01:21:58;2.05;;;1.58;;
7571;SDS011;3827;49.928;8.548;2022-09-02T01:24:26;2.53;;;1.60;;
7571;SDS011;3827;49.928;8.548;2022-09-02T01:26:55;1.80;;;1.43;;
7571;SDS011;3827;49.928;8.548;2022-09-02T01:29:23;2.10;;;1.60;;
7571;SDS011;3827;49.928;8.548;2022-09-02T01:31:51;2.10;;;1.50;;
7571;SDS011;3827;49.928;8.548;2022-09-02T01:34:18;2.55;;;1.40;;
7571;SDS011;3827;49.928;8.548;2022-09-02T01:36:45;3.20;;;1.60;;
7571;SDS011;3827;49.928;8.548;2022-09-02T01:39:14;2.30;;;1.40;;
7571;SDS011;3827;49.928;8.548;2022-09-02T01:41:40;2.75;;;1.60;;
7571;SDS011;3827;49.928;8.548;2022-09-02T01:44:08;3.50;;;1.70;;
7571;SDS011;3827;49.928;8.548;2022-09-02T01:46:36;2.35;;;1.50;;
7571;SDS011;3827;49.928;8.548;2022-09-02T01:49:03;3.53;;;1.50;;
7571;SDS011;3827;49.928;8.548;2022-09-02T01:51:30;2.10;;;1.60;;
7571;SDS011;3827;49.928;8.548;2022-09-02T01:53:57;1.73;;;1.60;;
7571;SDS011;3827;49.928;8.548;2022-09-02T01:56:25;3.30;;;1.60;;
7571;SDS011;3827;49.928;8.548;2022-09-02T01:58:52;2.33;;;1.40;;
7571;SDS011;3827;49.928;8.548;2022-09-02T02:01:19;3.28;;;1.40;;
7571;SDS011;3827;49.928;8.548;2022-09-02T02:03:46;2.53;;;1.40;;
7571;SDS011;3827;49.928;8.548;2022-09-02T02:06:14;3.70;;;1.80;;
7571;SDS011;3827;49.928;8.548;2022-09-02T02:08:42;2.45;;;1.50;;
7571;SDS011;3827;49.928;8.548;2022-09-02T02:11:09;1.75;;;1.33;;
7571;SDS011;3827;49.928;8.548;2022-09-02T02:13:44;1.98;;;1.50;;
7571;SDS011;3827;49.928;8.548;2022-09-02T02:16:11;3.10;;;1.55;;
7571;SDS011;3827;49.928;8.548;2022-09-02T02:18:38;1.92;;;1.60;;
7571;SDS011;3827;49.928;8.548;2022-09-02T02:21:05;2.67;;;1.50;;
7571;SDS011;3827;49.928;8.548;2022-09-02T02:23:33;2.63;;;1.35;;
7571;SDS011;3827;49.928;8.548;2022-09-02T02:26:00;2.97;;;1.50;;
7571;SDS011;3827;49.928;8.548;2022-09-02T02:28:28;1.83;;;1.40;;
7571;SDS011;3827;49.928;8.548;2022-09-02T02:30:56;1.55;;;1.40;;
7571;SDS011;3827;49.928;8.548;2022-09-02T02:33:24;1.75;;;1.60;;
7571;SDS011;3827;49.928;8.548;2022-09-02T02:35:53;2.20;;;1.40;;
7571;SDS011;3827;49.928;8.548;2022-09-02T02:38:20;1.48;;;1.38;;
7571;SDS011;3827;49.928;8.548;2022-09-02T02:40:47;1.70;;;1.60;;
7571;SDS011;3827;49.928;8.548;2022-09-02T02:43:14;2.08;;;1.60;;
7571;SDS011;3827;49.928;8.548;2022-09-02T02:45:41;1.50;;;1.40;;
7571;SDS011;3827;49.928;8.548;2022-09-02T02:48:10;2.10;;;1.60;;
7571;SDS011;3827;49.928;8.548;2022-09-02T02:50:37;1.95;;;1.50;;
7571;SDS011;3827;49.928;8.548;2022-09-02T02:53:04;2.27;;;1.40;;
7571;SDS011;3827;49.928;8.548;2022-09-02T02:55:31;2.25;;;1.50;;
7571;SDS011;3827;49.928;8.548;2022-09-02T02:57:58;2.90;;;1.48;;
7571;SDS011;3827;49.928;8.548;2022-09-02T03:00:27;2.08;;;1.58;;
7571;SDS011;3827;49.928;8.548;2022-09-02T03:02:56;1.75;;;1.52;;
7571;SDS011;3827;49.928;8.548;2022-09-02T03:05:26;2.67;;;1.50;;
7571;SDS011;3827;49.928;8.548;2022-09-02T03:07:54;2.50;;;1.60;;
7571;SDS011;3827;49.928;8.548;2022-09-02T03:10:21;2.63;;;1.35;;
7571;SDS011;3827;49.928;8.548;2022-09-02T03:12:49;1.55;;;1.38;;
7571;SDS011;3827;49.928;8.548;2022-09-02T03:15:17;1.83;;;1.65;;
7571;SDS011;3827;49.928;8.548;2022-09-02T03:17:45;1.70;;;1.25;;
7571;SDS011;3827;49.928;8.548;2022-09-02T03:20:13;1.90;;;1.42;;
7571;SDS011;3827;49.928;8.548;2022-09-02T03:22:43;1.48;;;1.38;;
7571;SDS011;3827;49.928;8.548;2022-09-02T03:25:12;1.85;;;1.50;;
7571;SDS011;3827;49.928;8.548;2022-09-02T03:27:41;1.77;;;1.63;;
7571;SDS011;3827;49.928;8.548;2022-09-02T03:30:10;1.45;;;1.35;;
7571;SDS011;3827;49.928;8.548;2022-09-02T03:32:39;1.70;;;1.50;;
7571;SDS011;3827;49.928;8.548;2022-09-02T03:35:07;2.95;;;1.60;;
7571;SDS011;3827;49.928;8.548;2022-09-02T03:37:37;2.10;;;2.00;;
7571;SDS011;3827;49.928;8.548;2022-09-02T03:40:07;1.80;;;1.70;;
7571;SDS011;3827;49.928;8.548;2022-09-02T03:42:35;1.58;;;1.48;;
7571;SDS011;3827;49.928;8.548;2022-09-02T03:45:02;2.00;;;1.50;;
7571;SDS011;3827;49.928;8.548;2022-09-02T03:47:31;2.20;;;1.60;;
7571;SDS011;3827;49.928;8.548;2022-09-02T03:49:58;1.73;;;1.33;;
7571;SDS011;3827;49.928;8.548;2022-09-02T03:52:24;1.52;;;1.30;;
7571;SDS011;3827;49.928;8.548;2022-09-02T03:54:51;1.80;;;1.60;;
7571;SDS011;3827;49.928;8.548;2022-09-02T03:57:20;1.75;;;1.48;;
7571;SDS011;3827;49.928;8.548;2022-09-02T03:59:49;1.80;;;1.67;;
7571;SDS011;3827;49.928;8.548;2022-09-02T04:02:17;2.37;;;1.70;;
7571;SDS011;3827;49.928;8.548;2022-09-02T04:04:44;1.40;;;1.30;;
7571;SDS011;3827;49.928;8.548;2022-09-02T04:07:10;1.60;;;1.50;;
7571;SDS011;3827;49.928;8.548;2022-09-02T04:09:37;1.73;;;1.40;;
7571;SDS011;3827;49.928;8.548;2022-09-02T04:12:04;1.50;;;1.40;;
7571;SDS011;3827;49.928;8.548;2022-09-02T04:14:33;2.38;;;1.60;;
7571;SDS011;3827;49.928;8.548;2022-09-02T04:23:36;1.60;;;1.50;;
7571;SDS011;3827;49.928;8.548;2022-09-02T04:26:03;1.50;;;1.40;;
7571;SDS011;3827;49.928;8.548;2022-09-02T04:28:32;1.38;;;1.27;;
7571;SDS011;3827;49.928;8.548;2022-09-02T04:31:03;1.52;;;1.30;;
7571;SDS011;3827;49.928;8.548;2022-09-02T04:33:31;2.83;;;1.67;;
7571;SDS011;3827;49.928;8.548;2022-09-02T04:35:58;1.83;;;1.40;;
7571;SDS011;3827;49.928;8.548;2022-09-02T04:38:25;1.80;;;1.40;;
7571;SDS011;3827;49.928;8.548;2022-09-02T04:40:52;2.20;;;1.45;;
7571;SDS011;3827;49.928;8.548;2022-09-02T04:43:19;1.83;;;1.55;;
7571;SDS011;3827;49.928;8.548;2022-09-02T04:45:46;1.45;;;1.30;;
7571;SDS011;3827;49.928;8.548;2022-09-02T04:48:14;1.48;;;1.38;;
7571;SDS011;3827;49.928;8.548;2022-09-02T04:50:41;1.70;;;1.40;;
7571;SDS011;3827;49.928;8.548;2022-09-02T04:53:08;1.60;;;1.50;;
7571;SDS011;3827;49.928;8.548;2022-09-02T04:55:37;2.00;;;1.80;;
7571;SDS011;3827;49.928;8.548;2022-09-02T04:58:04;2.25;;;1.70;;
7571;SDS011;3827;49.928;8.548;2022-09-02T05:00:31;1.40;;;1.30;;
7571;SDS011;3827;49.928;8.548;2022-09-02T05:02:58;3.13;;;1.77;;
7571;SDS011;3827;49.928;8.548;2022-09-02T05:05:27;1.60;;;1.50;;
7571;SDS011;3827;49.928;8.548;2022-09-02T05:07:53;2.15;;;1.60;;
7571;SDS011;3827;49.928;8.548;2022-09-02T05:10:21;2.50;;;1.60;;
7571;SDS011;3827;49.928;8.548;2022-09-02T05:12:48;2.17;;;1.50;;
7571;SDS011;3827;49.928;8.548;2022-09-02T05:15:15;2.30;;;1.55;;
7571;SDS011;3827;49.928;8.548;2022-09-02T05:17:42;1.98;;;1.55;;
7571;SDS011;3827;49.928;8.548;2022-09-02T05:20:10;1.58;;;1.48;;
7571;SDS011;3827;49.928;8.548;2022-09-02T05:22:39;2.58;;;1.70;;
7571;SDS011;3827;49.928;8.548;2022-09-02T05:25:07;2.33;;;1.60;;
7571;SDS011;3827;49.928;8.548;2022-09-02T05:27:36;1.95;;;1.40;;
7571;SDS011;3827;49.928;8.548;2022-09-02T05:30:04;2.35;;;1.55;;
7571;SDS011;3827;49.928;8.548;2022-09-02T05:32:32;2.28;;;1.50;;
7571;SDS011;3827;49.928;8.548;2022-09-02T05:34:59;2.30;;;1.70;;
7571;SDS011;3827;49.928;8.548;2022-09-02T05:37:26;1.90;;;1.40;;
7571;SDS011;3827;49.928;8.548;2022-09-02T05:39:54;1.42;;;1.33;;
7571;SDS011;3827;49.928;8.548;2022-09-02T05:42:21;1.50;;;1.40;;
7571;SDS011;3827;49.928;8.548;2022-09-02T05:44:48;1.70;;;1.60;;
7571;SDS011;3827;49.928;8.548;2022-09-02T05:47:15;1.50;;;1.38;;
7571;SDS011;3827;49.928;8.548;2022-09-02T05:49:42;1.45;;;1.35;;
7571;SDS011;3827;49.928;8.548;2022-09-02T05:52:11;1.50;;;1.40;;
7571;SDS011;3827;49.928;8.548;2022-09-02T05:54:39;1.50;;;1.40;;
7571;SDS011;3827;49.928;8.548;2022-09-02T05:57:08;2.47;;;1.42;;
7571;SDS011;3827;49.928;8.548;2022-09-02T05:59:36;2.20;;;1.30;;
7571;SDS011;3827;49.928;8.548;2022-09-02T06:02:06;2.75;;;1.67;;
7571;SDS011;3827;49.928;8.548;2022-09-02T06:04:36;2.55;;;1.50;;
7571;SDS011;3827;49.928;8.548;2022-09-02T06:07:03;2.45;;;1.67;;
7571;SDS011;3827;49.928;8.548;2022-09-02T06:09:30;2.60;;;1.70;;
7571;SDS011;3827;49.928;8.548;2022-09-02T06:11:58;2.85;;;1.50;;
7571;SDS011;3827;49.928;8.548;2022-09-02T06:14:26;1.70;;;1.60;;
7571;SDS011;3827;49.928;8.548;2022-09-02T06:16:55;3.60;;;1.60;;
7571;SDS011;3827;49.928;8.548;2022-09-02T06:19:24;2.63;;;1.77;;
7571;SDS011;3827;49.928;8.548;2022-09-02T06:21:54;3.75;;;1.73;;
7571;SDS011;3827;49.928;8.548;2022-09-02T06:24:22;1.98;;;1.88;;
7571;SDS011;3827;49.928;8.548;2022-09-02T06:26:49;1.88;;;1.70;;
7571;SDS011;3827;49.928;8.548;2022-09-02T06:29:17;3.83;;;1.70;;
7571;SDS011;3827;49.928;8.548;2022-09-02T06:31:46;2.30;;;1.65;;
7571;SDS011;3827;49.928;8.548;2022-09-02T06:34:15;3.35;;;1.77;;
7571;SDS011;3827;49.928;8.548;2022-09-02T06:36:44;3.05;;;1.80;;
7571;SDS011;3827;49.928;8.548;2022-09-02T06:39:14;2.07;;;1.87;;
7571;SDS011;3827;49.928;8.548;2022-09-02T06:41:43;3.67;;;1.77;;
7571;SDS011;3827;49.928;8.548;2022-09-02T06:44:12;2.80;;;1.67;;
7571;SDS011;3827;49.928;8.548;2022-09-02T06:46:41;2.00;;;1.63;;
7571;SDS011;3827;49.928;8.548;2022-09-02T06:49:12;2.88;;;1.80;;
7571;SDS011;3827;49.928;8.548;2022-09-02T06:51:42;2.28;;;1.67;;
7571;SDS011;3827;49.928;8.548;2022-09-02T06:54:12;1.75;;;1.48;;
7571;SDS011;3827;49.928;8.548;2022-09-02T06:56:41;2.88;;;1.73;;
7571;SDS011;3827;49.928;8.548;2022-09-02T06:59:08;1.65;;;1.55;;
7571;SDS011;3827;49.928;8.548;2022-09-02T07:01:36;3.17;;;1.60;;
7571;SDS011;3827;49.928;8.548;2022-09-02T07:04:03;1.70;;;1.60;;
7571;SDS011;3827;49.928;8.548;2022-09-02T07:06:50;3.10;;;1.55;;
7571;SDS011;3827;49.928;8.548;2022-09-02T07:09:20;1.90;;;1.58;;
7571;SDS011;3827;49.928;8.548;2022-09-02T07:11:49;3.58;;;1.80;;
7571;SDS011;3827;49.928;8.548;2022-09-02T07:14:17;1.70;;;1.52;;
7571;SDS011;3827;49.928;8.548;2022-09-02T07:16:46;2.00;;;1.80;;
7571;SDS011;3827;49.928;8.548;2022-09-02T07:21:56;2.15;;;1.67;;
7571;SDS011;3827;49.928;8.548;2022-09-02T07:24:23;1.92;;;1.70;;
7571;SDS011;3827;49.928;8.548;2022-09-02T07:26:50;2.40;;;1.60;;
7571;SDS011;3827;49.928;8.548;2022-09-02T07:29:17;3.05;;;1.73;;
7571;SDS011;3827;49.928;8.548;2022-09-02T07:31:45;2.08;;;1.58;;
7571;SDS011;3827;49.928;8.548;2022-09-02T07:34:13;2.10;;;1.38;;
7571;SDS011;3827;49.928;8.548;2022-09-02T07:36:40;2.15;;;1.40;;
7571;SDS011;3827;49.928;8.548;2022-09-02T07:39:11;2.25;;;1.50;;
7571;SDS011;3827;49.928;8.548;2022-09-02T07:41:39;1.60;;;1.50;;
7571;SDS011;3827;49.928;8.548;2022-09-02T07:44:07;2.35;;;1.67;;
7571;SDS011;3827;49.928;8.548;2022-09-02T07:46:35;1.50;;;1.40;;
7571;SDS011;3827;49.928;8.548;2022-09-02T07:49:03;3.70;;;1.52;;
7571;SDS011;3827;49.928;8.548;2022-09-02T07:51:32;2.65;;;1.52;;
7571;SDS011;3827;49.928;8.548;2022-09-02T07:53:59;1.70;;;1.50;;
7571;SDS011;3827;49.928;8.548;2022-09-02T07:56:28;2.40;;;1.40;;
7571;SDS011;3827;49.928;8.548;2022-09-02T07:58:55;2.13;;;1.52;;
7571;SDS011;3827;49.928;8.548;2022-09-02T08:01:23;1.70;;;1.35;;
7571;SDS011;3827;49.928;8.548;2022-09-02T08:03:50;1.90;;;1.30;;
7571;SDS011;3827;49.928;8.548;2022-09-02T08:06:18;2.28;;;1.60;;
7571;SDS011;3827;49.928;8.548;2022-09-02T08:08:47;1.42;;;1.33;;
7571;SDS011;3827;49.928;8.548;2022-09-02T08:11:15;2.27;;;1.27;;
7571;SDS011;3827;49.928;8.548;2022-09-02T08:13:43;1.92;;;1.30;;
7571;SDS011;3827;49.928;8.548;2022-09-02T08:16:10;2.87;;;1.47;;
7571;SDS011;3827;49.928;8.548;2022-09-02T08:18:38;1.55;;;1.15;;
7571;SDS011;3827;49.928;8.548;2022-09-02T08:21:05;1.65;;;1.17;;
7571;SDS011;3827;49.928;8.548;2022-09-02T08:23:33;4.23;;;1.50;;
7571;SDS011;3827;49.928;8.548;2022-09-02T08:25:59;3.35;;;1.33;;
7571;SDS011;3827;49.928;8.548;2022-09-02T08:28:27;2.38;;;1.23;;
7571;SDS011;3827;49.928;8.548;2022-09-02T08:30:57;1.45;;;1.08;;
7571;SDS011;3827;49.928;8.548;2022-09-02T08:33:24;1.60;;;1.08;;
7571;SDS011;3827;49.928;8.548;2022-09-02T08:35:53;2.75;;;1.27;;
7571;SDS011;3827;49.928;8.548;2022-09-02T08:38:20;1.40;;;1.30;;
7571;SDS011;3827;49.928;8.548;2022-09-02T08:40:47;1.03;;;0.93;;
7571;SDS011;3827;49.928;8.548;2022-09-02T08:43:20;1.85;;;1.20;;
7571;SDS011;3827;49.928;8.548;2022-09-02T08:45:55;1.85;;;1.20;;
7571;SDS011;3827;49.928;8.548;2022-09-02T08:48:31;0.97;;;0.93;;
7571;SDS011;3827;49.928;8.548;2022-09-02T08:51:04;1.30;;;1.10;;
7571;SDS011;3827;49.928;8.548;2022-09-02T08:53:35;1.73;;;1.27;;
7571;SDS011;3827;49.928;8.548;2022-09-02T08:56:05;2.33;;;1.03;;
7571;SDS011;3827;49.928;8.548;2022-09-02T08:58:38;1.23;;;0.90;;
7571;SDS011;3827;49.928;8.548;2022-09-02T09:01:09;2.35;;;1.13;;
7571;SDS011;3827;49.928;8.548;2022-09-02T09:03:48;2.05;;;1.10;;
7571;SDS011;3827;49.928;8.548;2022-09-02T09:06:32;2.25;;;0.98;;
7571;SDS011;3827;49.928;8.548;2022-09-02T09:09:07;1.20;;;1.10;;
7571;SDS011;3827;49.928;8.548;2022-09-02T09:11:40;1.45;;;1.20;;
7571;SDS011;3827;49.928;8.548;2022-09-02T09:14:17;2.47;;;1.30;;
7571;SDS011;3827;49.928;8.548;2022-09-02T09:16:55;2.53;;;1.20;;
7571;SDS011;3827;49.928;8.548;2022-09-02T09:19:27;1.45;;;1.20;;
7571;SDS011;3827;49.928;8.548;2022-09-02T09:22:01;0.90;;;0.90;;
7571;SDS011;3827;49.928;8.548;2022-09-02T09:24:31;1.08;;;0.90;;
7571;SDS011;3827;49.928;8.548;2022-09-02T09:27:02;2.28;;;0.93;;
7571;SDS011;3827;49.928;8.548;2022-09-02T09:29:31;1.17;;;0.80;;
7571;SDS011;3827;49.928;8.548;2022-09-02T09:31:59;1.60;;;0.90;;
7571;SDS011;3827;49.928;8.548;2022-09-02T09:37:28;1.40;;;0.98;;
7571;SDS011;3827;49.928;8.548;2022-09-02T09:39:57;1.30;;;1.08;;
7571;SDS011;3827;49.928;8.548;2022-09-02T09:42:31;4.07;;;1.10;;
7571;SDS011;3827;49.928;8.548;2022-09-02T09:45:10;2.15;;;1.15;;
7571;SDS011;3827;49.928;8.548;2022-09-02T09:48:12;1.00;;;0.90;;
7571;SDS011;3827;49.928;8.548;2022-09-02T09:51:08;1.65;;;0.90;;
7571;SDS011;3827;49.928;8.548;2022-09-02T09:53:39;1.08;;;0.90;;
7571;SDS011;3827;49.928;8.548;2022-09-02T09:56:23;2.17;;;0.80;;
7571;SDS011;3827;49.928;8.548;2022-09-02T09:58:54;2.03;;;0.88;;
7571;SDS011;3827;49.928;8.548;2022-09-02T10:01:22;2.00;;;1.17;;
7571;SDS011;3827;49.928;8.548;2022-09-02T10:03:54;1.08;;;0.98;;
7571;SDS011;3827;49.928;8.548;2022-09-02T10:06:22;1.10;;;1.00;;
7571;SDS011;3827;49.928;8.548;2022-09-02T10:08:51;1.42;;;0.95;;
7571;SDS011;3827;49.928;8.548;2022-09-02T10:11:21;2.72;;;0.95;;
7571;SDS011;3827;49.928;8.548;2022-09-02T10:13:50;1.30;;;0.90;;
7571;SDS011;3827;49.928;8.548;2022-09-02T10:16:31;3.73;;;1.00;;
7571;SDS011;3827;49.928;8.548;2022-09-02T10:19:13;2.45;;;1.05;;
7571;SDS011;3827;49.928;8.548;2022-09-02T10:22:02;1.35;;;1.00;;
7571;SDS011;3827;49.928;8.548;2022-09-02T10:24:54;1.60;;;0.98;;
7571;SDS011;3827;49.928;8.548;2022-09-02T10:27:30;2.45;;;1.08;;
7571;SDS011;3827;49.928;8.548;2022-09-02T10:30:06;2.22;;;1.13;;
7571;SDS011;3827;49.928;8.548;2022-09-02T10:32:41;2.78;;;1.05;;
7571;SDS011;3827;49.928;8.548;2022-09-02T10:35:33;1.48;;;1.10;;
7571;SDS011;3827;49.928;8.548;2022-09-02T10:38:11;1.20;;;0.90;;
7571;SDS011;3827;49.928;8.548;2022-09-02T10:40:47;1.85;;;0.98;;
7571;SDS011;3827;49.928;8.548;2022-09-02T10:43:22;1.95;;;0.82;;
7571;SDS011;3827;49.928;8.548;2022-09-02T10:45:58;1.50;;;1.00;;
7571;SDS011;3827;49.928;8.548;2022-09-02T10:48:28;1.25;;;0.80;;
7571;SDS011;3827;49.928;8.548;2022-09-02T10:51:09;1.02;;;0.90;;
7571;SDS011;3827;49.928;8.548;2022-09-02T10:53:42;2.67;;;0.90;;
7571;SDS011;3827;49.928;8.548;2022-09-02T10:56:18;0.93;;;0.82;;
7571;SDS011;3827;49.928;8.548;2022-09-02T10:58:52;1.60;;;0.98;;
7571;SDS011;3827;49.928;8.548;2022-09-02T11:01:25;1.90;;;0.98;;
7571;SDS011;3827;49.928;8.548;2022-09-02T11:03:57;0.80;;;0.80;;
7571;SDS011;3827;49.928;8.548;2022-09-02T11:06:34;2.17;;;0.97;;
7571;SDS011;3827;49.928;8.548;2022-09-02T11:09:05;1.70;;;0.90;;
7571;SDS011;3827;49.928;8.548;2022-09-02T11:11:36;2.22;;;0.90;;
7571;SDS011;3827;49.928;8.548;2022-09-02T11:14:10;2.03;;;0.88;;
7571;SDS011;3827;49.928;8.548;2022-09-02T11:16:45;1.48;;;0.90;;
7571;SDS011;3827;49.928;8.548;2022-09-02T11:19:21;3.10;;;1.00;;
7571;SDS011;3827;49.928;8.548;2022-09-02T11:21:57;2.28;;;1.30;;
7571;SDS011;3827;49.928;8.548;2022-09-02T11:24:30;1.67;;;0.90;;
7571;SDS011;3827;49.928;8.548;2022-09-02T11:27:04;3.47;;;0.90;;
7571;SDS011;3827;49.928;8.548;2022-09-02T11:29:39;3.85;;;1.08;;
7571;SDS011;3827;49.928;8.548;2022-09-02T11:32:16;2.30;;;1.00;;
7571;SDS011;3827;49.928;8.548;2022-09-02T11:34:48;2.30;;;0.90;;
7571;SDS011;3827;49.928;8.548;2022-09-02T11:37:27;4.15;;;1.00;;
7571;SDS011;3827;49.928;8.548;2022-09-02T11:39:59;2.45;;;1.00;;
7571;SDS011;3827;49.928;8.548;2022-09-02T11:42:52;2.25;;;0.70;;
7571;SDS011;3827;49.928;8.548;2022-09-02T11:45:34;1.35;;;0.90;;
7571;SDS011;3827;49.928;8.548;2022-09-02T11:48:37;2.23;;;1.03;;
7571;SDS011;3827;49.928;8.548;2022-09-02T11:51:34;1.23;;;1.00;;
7571;SDS011;3827;49.928;8.548;2022-09-02T11:54:28;3.40;;;1.00;;
7571;SDS011;3827;49.928;8.548;2022-09-02T11:57:00;1.00;;;0.80;;
7571;SDS011;3827;49.928;8.548;2022-09-02T12:02:34;0.80;;;0.77;;
7571;SDS011;3827;49.928;8.548;2022-09-02T12:14:03;1.13;;;0.97;;
7571;SDS011;3827;49.928;8.548;2022-09-02T12:16:34;1.88;;;0.80;;
7571;SDS011;3827;49.928;8.548;2022-09-02T12:19:24;1.50;;;1.02;;
7571;SDS011;3827;49.928;8.548;2022-09-02T12:24:56;0.73;;;0.73;;
7571;SDS011;3827;49.928;8.548;2022-09-02T12:27:26;0.93;;;0.80;;
7571;SDS011;3827;49.928;8.548;2022-09-02T12:29:55;1.30;;;0.85;;
7571;SDS011;3827;49.928;8.548;2022-09-02T12:35:29;1.55;;;0.90;;
7571;SDS011;3827;49.928;8.548;2022-09-02T12:40:53;0.82;;;0.77;;
7571;SDS011;3827;49.928;8.548;2022-09-02T12:43:30;2.00;;;0.80;;
7571;SDS011;3827;49.928;8.548;2022-09-02T12:46:05;2.60;;;0.90;;
7571;SDS011;3827;49.928;8.548;2022-09-02T12:48:43;0.80;;;0.80;;
7571;SDS011;3827;49.928;8.548;2022-09-02T12:54:18;2.10;;;0.90;;
7571;SDS011;3827;49.928;8.548;2022-09-02T12:56:51;0.73;;;0.70;;
7571;SDS011;3827;49.928;8.548;2022-09-02T12:59:24;1.33;;;0.98;;
7571;SDS011;3827;49.928;8.548;2022-09-02T13:01:57;2.43;;;0.90;;
7571;SDS011;3827;49.928;8.548;2022-09-02T13:04:31;0.90;;;0.73;;
7571;SDS011;3827;49.928;8.548;2022-09-02T13:13:39;0.70;;;0.70;;
7571;SDS011;3827;49.928;8.548;2022-09-02T13:16:35;2.30;;;0.90;;
7571;SDS011;3827;49.928;8.548;2022-09-02T13:19:09;1.00;;;0.80;;
7571;SDS011;3827;49.928;8.548;2022-09-02T13:24:59;1.77;;;0.80;;
7571;SDS011;3827;49.928;8.548;2022-09-02T13:27:55;2.07;;;0.80;;
7571;SDS011;3827;49.928;8.548;2022-09-02T13:31:07;1.00;;;0.90;;
7571;SDS011;3827;49.928;8.548;2022-09-02T13:33:40;1.98;;;0.80;;
7571;SDS011;3827;49.928;8.548;2022-09-02T13:36:08;1.65;;;0.90;;
7571;SDS011;3827;49.928;8.548;2022-09-02T13:38:35;1.48;;;0.80;;
7571;SDS011;3827;49.928;8.548;2022-09-02T13:41:02;2.00;;;1.00;;
7571;SDS011;3827;49.928;8.548;2022-09-02T13:43:29;1.57;;;0.80;;
7571;SDS011;3827;49.928;8.548;2022-09-02T13:45:58;1.38;;;0.77;;
7571;SDS011;3827;49.928;8.548;2022-09-02T13:48:27;1.60;;;1.00;;
7571;SDS011;3827;49.928;8.548;2022-09-02T13:50:58;2.40;;;0.85;;
7571;SDS011;3827;49.928;8.548;2022-09-02T13:53:38;1.48;;;0.80;;
7571;SDS011;3827;49.928;8.548;2022-09-02T13:56:08;0.90;;;0.77;;
7571;SDS011;3827;49.928;8.548;2022-09-02T13:58:39;0.80;;;0.80;;
7571;SDS011;3827;49.928;8.548;2022-09-02T14:01:16;1.83;;;0.90;;
7571;SDS011;3827;49.928;8.548;2022-09-02T14:03:49;0.90;;;0.90;;
7571;SDS011;3827;49.928;8.548;2022-09-02T14:06:19;2.30;;;0.90;;
7571;SDS011;3827;49.928;8.548;2022-09-02T14:08:48;1.00;;;0.88;;
7571;SDS011;3827;49.928;8.548;2022-09-02T14:11:17;0.80;;;0.80;;
7571;SDS011;3827;49.928;8.548;2022-09-02T14:13:46;2.10;;;0.80;;
7571;SDS011;3827;49.928;8.548;2022-09-02T14:16:24;0.98;;;0.82;;
7571;SDS011;3827;49.928;8.548;2022-09-02T14:21:49;0.77;;;0.77;;
7571;SDS011;3827;49.928;8.548;2022-09-02T14:24:19;1.45;;;0.93;;
7571;SDS011;3827;49.928;8.548;2022-09-02T14:26:48;1.60;;;0.80;;
7571;SDS011;3827;49.928;8.548;2022-09-02T14:29:17;1.83;;;0.93;;
7571;SDS011;3827;49.928;8.548;2022-09-02T14:31:45;3.22;;;1.05;;
7571;SDS011;3827;49.928;8.548;2022-09-02T14:34:30;2.70;;;0.80;;
7571;SDS011;3827;49.928;8.548;2022-09-02T14:37:04;1.33;;;0.70;;
7571;SDS011;3827;49.928;8.548;2022-09-02T14:40:03;1.90;;;0.90;;
7571;SDS011;3827;49.928;8.548;2022-09-02T14:42:42;3.50;;;0.90;;
7571;SDS011;3827;49.928;8.548;2022-09-02T14:45:10;1.52;;;0.95;;
7571;SDS011;3827;49.928;8.548;2022-09-02T14:47:38;1.95;;;0.95;;
7571;SDS011;3827;49.928;8.548;2022-09-02T14:50:08;2.25;;;1.00;;
7571;SDS011;3827;49.928;8.548;2022-09-02T14:52:43;0.93;;;0.60;;
7571;SDS011;3827;49.928;8.548;2022-09-02T14:55:17;1.05;;;0.90;;
7571;SDS011;3827;49.928;8.548;2022-09-02T14:58:06;1.38;;;0.80;;
7571;SDS011;3827;49.928;8.548;2022-09-02T15:00:33;1.95;;;0.90;;
7571;SDS011;3827;49.928;8.548;2022-09-02T15:03:03;0.82;;;0.70;;
7571;SDS011;3827;49.928;8.548;2022-09-02T15:05:31;1.13;;;0.80;;
7571;SDS011;3827;49.928;8.548;2022-09-02T15:07:59;2.47;;;0.95;;
7571;SDS011;3827;49.928;8.548;2022-09-02T15:10:26;3.72;;;0.93;;
7571;SDS011;3827;49.928;8.548;2022-09-02T15:12:53;1.10;;;0.85;;
7571;SDS011;3827;49.928;8.548;2022-09-02T15:15:22;1.90;;;0.90;;
7571;SDS011;3827;49.928;8.548;2022-09-02T15:17:49;2.70;;;0.80;;
7571;SDS011;3827;49.928;8.548;2022-09-02T15:20:16;0.90;;;0.88;;
7571;SDS011;3827;49.928;8.548;2022-09-02T15:22:43;1.27;;;0.90;;
7571;SDS011;3827;49.928;8.548;2022-09-02T15:25:11;2.60;;;1.00;;
7571;SDS011;3827;49.928;8.548;2022-09-02T15:27:39;1.75;;;0.90;;
7571;SDS011;3827;49.928;8.548;2022-09-02T15:30:06;1.73;;;0.85;;
7571;SDS011;3827;49.928;8.548;2022-09-02T15:32:34;1.77;;;0.85;;
7571;SDS011;3827;49.928;8.548;2022-09-02T15:35:01;2.55;;;0.90;;
7571;SDS011;3827;49.928;8.548;2022-09-02T15:37:28;1.10;;;1.00;;
7571;SDS011;3827;49.928;8.548;2022-09-02T15:39:55;3.13;;;0.80;;
7571;SDS011;3827;49.928;8.548;2022-09-02T15:42:23;1.37;;;0.70;;
7571;SDS011;3827;49.928;8.548;2022-09-02T15:44:50;2.08;;;0.85;;
7571;SDS011;3827;49.928;8.548;2022-09-02T15:47:16;1.43;;;0.83;;
7571;SDS011;3827;49.928;8.548;2022-09-02T15:49:43;2.60;;;0.90;;
7571;SDS011;3827;49.928;8.548;2022-09-02T15:52:10;1.40;;;0.85;;
7571;SDS011;3827;49.928;8.548;2022-09-02T15:54:37;2.65;;;0.90;;
7571;SDS011;3827;49.928;8.548;2022-09-02T15:57:05;0.80;;;0.80;;
7571;SDS011;3827;49.928;8.548;2022-09-02T15:59:34;0.80;;;0.80;;
7571;SDS011;3827;49.928;8.548;2022-09-02T16:02:00;0.80;;;0.70;;
7571;SDS011;3827;49.928;8.548;2022-09-02T16:04:27;1.13;;;1.05;;
7571;SDS011;3827;49.928;8.548;2022-09-02T16:06:54;1.03;;;0.93;;
7571;SDS011;3827;49.928;8.548;2022-09-02T16:09:21;1.65;;;0.80;;
7571;SDS011;3827;49.928;8.548;2022-09-02T16:11:49;1.80;;;0.87;;
7571;SDS011;3827;49.928;8.548;2022-09-02T16:14:17;0.93;;;0.80;;
7571;SDS011;3827;49.928;8.548;2022-09-02T16:16:45;0.80;;;0.73;;
7571;SDS011;3827;49.928;8.548;2022-09-02T16:19:13;0.98;;;0.88;;
7571;SDS011;3827;49.928;8.548;2022-09-02T16:21:40;1.25;;;0.85;;
7571;SDS011;3827;49.928;8.548;2022-09-02T16:24:07;0.88;;;0.80;;